createdAt,value
2022-08-23T00:00:44.457Z,8.65
2022-08-23T00:04:56.934Z,7.70
2022-08-23T00:09:12.540Z,5.88
2022-08-23T00:13:15.904Z,6.32
2022-08-23T00:17:33.297Z,5.40
2022-08-23T00:21:39.033Z,6.95
2022-08-23T00:25:42.189Z,7.10
2022-08-23T00:29:49.327Z,8.25
2022-08-23T00:33:54.311Z,6.80
2022-08-23T00:38:32.886Z,4.63
2022-08-23T00:42:51.525Z,11.45
2022-08-23T00:47:15.354Z,7.68
2022-08-23T00:51:24.853Z,9.40
2022-08-23T00:55:29.680Z,9.20
2022-08-23T00:59:35.152Z,5.72
2022-08-23T01:03:43.207Z,8.73
2022-08-23T01:07:50.445Z,5.85
2022-08-23T01:12:00.113Z,5.40
2022-08-23T01:16:09.751Z,6.30
2022-08-23T01:20:16.601Z,6.18
2022-08-23T01:24:37.277Z,5.05
2022-08-23T01:28:45.955Z,7.65
2022-08-23T01:32:55.334Z,6.38
2022-08-23T01:37:00.669Z,6.88
2022-08-23T01:41:06.402Z,12.20
2022-08-23T01:45:13.185Z,6.70
2022-08-23T01:49:17.761Z,8.63
2022-08-23T01:53:21.806Z,9.88
2022-08-23T01:57:26.307Z,10.88
2022-08-23T02:01:30.134Z,8.95
2022-08-23T02:05:33.872Z,10.40
2022-08-23T02:09:37.806Z,12.57
2022-08-23T02:13:42.351Z,12.48
2022-08-23T02:17:47.197Z,16.55
2022-08-23T02:21:51.036Z,13.73
2022-08-23T02:25:54.940Z,12.32
2022-08-23T02:29:59.736Z,11.18
2022-08-23T02:38:27.278Z,12.63
2022-08-23T02:42:31.195Z,10.55
2022-08-23T02:46:35.937Z,11.65
2022-08-23T02:50:39.379Z,9.40
2022-08-23T02:54:43.236Z,12.45
2022-08-23T02:58:47.275Z,14.15
2022-08-23T03:02:58.650Z,12.38
2022-08-23T03:07:02.138Z,11.35
2022-08-23T03:11:13.125Z,14.13
2022-08-23T03:15:16.302Z,13.10
2022-08-23T03:19:22.381Z,12.32
2022-08-23T03:23:25.896Z,12.38
2022-08-23T03:27:29.841Z,13.23
2022-08-23T03:31:32.892Z,16.88
2022-08-23T03:35:38.045Z,13.45
2022-08-23T03:39:41.863Z,21.50
2022-08-23T03:43:45.364Z,11.27
2022-08-23T03:47:49.179Z,17.10
2022-08-23T03:51:54.782Z,12.40
2022-08-23T03:55:58.258Z,10.45
2022-08-23T04:00:02.108Z,12.55
2022-08-23T04:04:06.075Z,12.40
2022-08-23T04:08:12.489Z,12.82
2022-08-23T04:12:17.490Z,13.13
2022-08-23T04:16:21.632Z,15.50
2022-08-23T04:20:25.631Z,10.93
2022-08-23T04:24:31.971Z,15.13
2022-08-23T04:28:37.068Z,13.35
2022-08-23T04:32:41.213Z,13.73
2022-08-23T04:36:55.198Z,12.13
2022-08-23T04:41:17.826Z,13.15
2022-08-23T04:45:21.344Z,14.73
2022-08-23T04:49:26.173Z,15.30
2022-08-23T04:53:31.157Z,13.30
2022-08-23T04:57:35.660Z,10.15
2022-08-23T05:01:40.352Z,9.10
2022-08-23T05:05:43.994Z,10.10
2022-08-23T05:09:47.089Z,11.98
2022-08-23T05:13:52.659Z,12.23
2022-08-23T05:17:56.236Z,12.35
2022-08-23T05:21:59.361Z,8.85
2022-08-23T05:26:03.251Z,9.98
2022-08-23T05:30:14.418Z,14.02
2022-08-23T05:34:22.432Z,9.10
2022-08-23T05:38:26.812Z,7.50
2022-08-23T05:42:30.735Z,13.93
2022-08-23T05:46:35.824Z,6.47
2022-08-23T05:50:40.824Z,7.68
2022-08-23T05:54:44.543Z,8.88
2022-08-23T05:58:48.717Z,8.68
2022-08-23T06:02:54.154Z,7.40
2022-08-23T06:06:59.656Z,16.95
2022-08-23T06:11:05.314Z,10.20
2022-08-23T06:15:09.552Z,12.15
2022-08-23T06:19:16.129Z,7.32
2022-08-23T06:23:20.657Z,8.70
2022-08-23T06:27:24.524Z,7.82
2022-08-23T06:31:48.150Z,7.68
2022-08-23T06:36:03.723Z,8.15
2022-08-23T06:40:08.408Z,11.48
2022-08-23T06:44:13.201Z,7.50
2022-08-23T06:48:18.828Z,8.48
2022-08-23T06:52:24.195Z,9.50
2022-08-23T06:56:29.474Z,9.40
2022-08-23T07:00:33.165Z,9.35
2022-08-23T07:04:39.839Z,7.30
2022-08-23T07:08:45.545Z,10.60
2022-08-23T07:12:50.364Z,11.48
2022-08-23T07:16:56.964Z,10.52
2022-08-23T07:21:03.495Z,8.68
2022-08-23T07:25:09.100Z,8.05
2022-08-23T07:29:14.408Z,11.07
2022-08-23T07:33:18.211Z,7.72
2022-08-23T07:37:26.131Z,7.88
2022-08-23T07:41:32.767Z,9.55
2022-08-23T07:45:38.125Z,6.90
2022-08-23T07:49:42.387Z,7.63
2022-08-23T07:53:46.665Z,7.95
2022-08-23T07:57:51.770Z,6.38
2022-08-23T08:01:55.013Z,8.27
2022-08-23T08:06:00.241Z,14.57
2022-08-23T08:10:03.824Z,8.75
2022-08-23T08:14:10.758Z,8.50
2022-08-23T08:18:13.865Z,6.50
2022-08-23T08:22:17.442Z,9.30
2022-08-23T08:26:21.609Z,8.13
2022-08-23T08:30:27.147Z,7.00
2022-08-23T08:34:30.314Z,7.15
2022-08-23T08:38:36.822Z,8.57
2022-08-23T08:43:01.367Z,6.75
2022-08-23T08:47:11.804Z,12.57
2022-08-23T08:51:29.175Z,8.00
2022-08-23T08:55:39.338Z,6.43
2022-08-23T08:59:49.563Z,9.57
2022-08-23T09:03:55.265Z,7.97
2022-08-23T09:08:11.929Z,7.80
2022-08-23T09:12:22.097Z,7.90
2022-08-23T09:16:38.825Z,8.15
2022-08-23T09:20:46.474Z,7.00
2022-08-23T09:24:50.805Z,7.57
2022-08-23T09:28:56.454Z,6.95
2022-08-23T09:33:17.180Z,7.75
2022-08-23T09:37:24.761Z,9.23
2022-08-23T09:41:33.302Z,13.88
2022-08-23T09:45:39.013Z,5.70
2022-08-23T09:49:46.260Z,7.72
2022-08-23T09:53:53.866Z,7.03
2022-08-23T09:57:58.310Z,6.70
2022-08-23T10:02:02.943Z,6.60
2022-08-23T10:06:09.000Z,5.50
2022-08-23T10:10:23.782Z,6.43
2022-08-23T10:14:30.666Z,6.03
2022-08-23T10:18:53.012Z,5.95
2022-08-23T10:23:07.828Z,5.07
2022-08-23T10:27:47.336Z,7.38
2022-08-23T10:32:01.265Z,7.82
2022-08-23T10:36:14.167Z,5.50
2022-08-23T10:40:24.241Z,9.30
2022-08-23T10:44:35.894Z,6.43
2022-08-23T10:48:49.133Z,5.47
2022-08-23T10:52:55.691Z,7.20
2022-08-23T10:56:59.535Z,8.25
2022-08-23T11:01:05.571Z,5.25
2022-08-23T11:05:21.149Z,5.95
2022-08-23T11:09:38.053Z,5.43
2022-08-23T11:13:55.104Z,6.78
2022-08-23T11:18:05.137Z,4.50
2022-08-23T11:22:17.420Z,6.82
2022-08-23T11:26:54.212Z,5.72
2022-08-23T11:31:26.641Z,7.65
2022-08-23T11:35:43.143Z,7.93
2022-08-23T11:40:13.608Z,7.47
2022-08-23T11:44:25.574Z,7.20
2022-08-23T11:48:43.479Z,4.10
2022-08-23T11:53:07.683Z,3.92
2022-08-23T11:57:24.298Z,8.02
2022-08-23T12:01:33.687Z,4.40
2022-08-23T12:06:10.304Z,6.45
2022-08-23T12:10:26.048Z,5.53
2022-08-23T12:14:38.496Z,3.97
2022-08-23T12:18:47.833Z,7.32
2022-08-23T12:23:06.287Z,2.08
2022-08-23T12:27:29.536Z,6.13
2022-08-23T12:31:41.457Z,3.97
2022-08-23T12:35:52.080Z,2.03
2022-08-23T12:39:59.260Z,3.63
2022-08-23T12:44:08.494Z,3.70
2022-08-23T12:48:15.582Z,2.97
2022-08-23T12:52:19.330Z,3.33
2022-08-23T12:56:32.136Z,2.22
2022-08-23T13:00:40.772Z,3.50
2022-08-23T13:04:44.681Z,4.18
2022-08-23T13:08:55.103Z,4.13
2022-08-23T13:12:59.292Z,6.18
2022-08-23T13:17:23.815Z,3.22
2022-08-23T13:21:31.959Z,2.05
2022-08-23T13:25:44.707Z,2.35
2022-08-23T13:29:56.815Z,2.60
2022-08-23T13:34:02.149Z,2.63
2022-08-23T13:38:22.581Z,8.10
2022-08-23T13:42:35.545Z,1.58
2022-08-23T13:46:46.571Z,3.53
2022-08-23T13:50:52.656Z,2.65
2022-08-23T13:54:56.476Z,4.18
2022-08-23T13:59:03.438Z,2.63
2022-08-23T14:03:07.928Z,8.60
2022-08-23T14:07:13.217Z,3.20
2022-08-23T14:11:17.966Z,2.92
2022-08-23T14:15:54.659Z,3.17
2022-08-23T14:20:31.993Z,3.95
2022-08-23T14:24:12.762Z,5.20
2022-08-23T14:28:16.416Z,4.50
2022-08-23T14:32:20.129Z,6.93
2022-08-23T14:36:23.989Z,3.45
2022-08-23T14:40:36.308Z,3.88
2022-08-23T14:44:39.888Z,3.42
2022-08-23T14:48:43.848Z,2.25
2022-08-23T14:52:48.641Z,1.08
2022-08-23T14:56:54.155Z,1.20
2022-08-23T15:00:57.554Z,3.88
2022-08-23T15:05:01.201Z,1.48
2022-08-23T15:09:04.958Z,1.00
2022-08-23T15:13:21.815Z,1.38
2022-08-23T15:17:31.844Z,4.25
2022-08-23T15:21:35.727Z,5.65
2022-08-23T15:25:41.615Z,7.88
2022-08-23T15:29:46.728Z,3.58
2022-08-23T15:33:50.651Z,5.38
2022-08-23T15:37:54.689Z,2.38
2022-08-23T15:41:58.385Z,2.95
2022-08-23T15:46:06.182Z,3.80
2022-08-23T15:50:10.870Z,2.70
2022-08-23T15:54:14.761Z,3.30
2022-08-23T15:58:20.454Z,2.90
2022-08-23T16:02:25.447Z,5.90
2022-08-23T16:06:34.393Z,1.70
2022-08-23T16:10:41.579Z,6.60
2022-08-23T16:14:44.735Z,3.45
2022-08-23T16:18:51.734Z,3.17
2022-08-23T16:22:55.608Z,3.05
2022-08-23T16:26:59.403Z,2.78
2022-08-23T16:31:03.209Z,4.15
2022-08-23T16:35:08.989Z,3.42
2022-08-23T16:39:13.672Z,3.22
2022-08-23T16:43:17.272Z,3.10
2022-08-23T16:47:20.905Z,3.85
2022-08-23T16:51:26.511Z,3.90
2022-08-23T16:55:30.129Z,1.55
2022-08-23T16:59:36.189Z,4.63
2022-08-23T17:03:43.969Z,2.15
2022-08-23T17:07:50.078Z,1.95
2022-08-23T17:11:55.849Z,3.53
2022-08-23T17:15:59.243Z,1.40
2022-08-23T17:20:03.703Z,2.97
2022-08-23T17:24:11.947Z,2.60
2022-08-23T17:28:15.760Z,2.63
2022-08-23T17:32:19.602Z,2.10
2022-08-23T17:36:30.281Z,4.30
2022-08-23T17:40:37.374Z,1.75
2022-08-23T17:44:41.766Z,3.50
2022-08-23T17:48:45.641Z,8.02
2022-08-23T17:52:51.452Z,2.95
2022-08-23T17:56:56.105Z,3.42
2022-08-23T18:00:59.940Z,3.35
2022-08-23T18:05:03.874Z,4.97
2022-08-23T18:09:08.062Z,3.55
2022-08-23T18:13:12.944Z,6.40
2022-08-23T18:17:16.634Z,3.13
2022-08-23T18:21:21.574Z,3.58
2022-08-23T18:25:25.511Z,4.03
2022-08-23T18:29:30.762Z,3.00
2022-08-23T18:33:46.774Z,6.00
2022-08-23T18:37:51.136Z,5.18
2022-08-23T18:41:55.095Z,2.22
2022-08-23T18:46:01.106Z,6.13
2022-08-23T18:50:06.879Z,5.47
2022-08-23T18:54:11.152Z,3.85
2022-08-23T18:58:15.291Z,4.47
2022-08-23T19:02:20.743Z,3.20
2022-08-23T19:06:24.664Z,2.60
2022-08-23T19:10:28.478Z,4.45
2022-08-23T19:14:34.146Z,3.38
2022-08-23T19:18:39.443Z,3.97
2022-08-23T19:22:44.217Z,2.80
2022-08-23T19:26:49.144Z,5.13
2022-08-23T19:30:52.933Z,4.78
2022-08-23T19:34:58.951Z,2.97
2022-08-23T19:39:02.767Z,4.75
2022-08-23T19:43:06.547Z,3.75
2022-08-23T19:47:19.394Z,2.42
2022-08-23T19:51:26.684Z,5.13
2022-08-23T19:55:32.258Z,6.55
2022-08-23T19:59:39.853Z,3.38
2022-08-23T20:03:44.213Z,3.92
2022-08-23T20:07:49.533Z,4.63
2022-08-23T20:11:56.855Z,5.88
2022-08-23T20:16:01.350Z,3.78
2022-08-23T20:20:05.798Z,5.07
2022-08-23T20:24:12.727Z,4.43
2022-08-23T20:28:16.396Z,5.72
2022-08-23T20:32:20.331Z,4.57
2022-08-23T20:36:25.444Z,3.85
2022-08-23T20:40:30.593Z,5.47
2022-08-23T20:44:33.834Z,7.05
2022-08-23T20:48:38.104Z,5.10
2022-08-23T20:52:41.340Z,4.40
2022-08-23T20:56:46.762Z,4.05
2022-08-23T21:00:50.578Z,5.50
2022-08-23T21:04:54.234Z,5.55
2022-08-23T21:09:00.459Z,4.10
2022-08-23T21:13:10.493Z,5.75
2022-08-23T21:17:14.335Z,4.25
2022-08-23T21:21:21.529Z,5.85
2022-08-23T21:25:25.100Z,5.65
2022-08-23T21:29:30.364Z,5.95
2022-08-23T21:33:39.334Z,5.95
2022-08-23T21:37:43.922Z,6.70
2022-08-23T21:41:48.751Z,4.63
2022-08-23T21:45:53.527Z,5.07
2022-08-23T21:49:57.299Z,7.80
2022-08-23T21:54:00.905Z,10.00
2022-08-23T21:58:04.681Z,6.15
2022-08-23T22:02:09.163Z,5.45
2022-08-23T22:06:17.423Z,5.30
2022-08-23T22:10:21.954Z,4.80
2022-08-23T22:14:31.506Z,5.90
2022-08-23T22:18:37.310Z,7.43
2022-08-23T22:22:41.626Z,5.07
2022-08-23T22:26:46.486Z,7.57
2022-08-23T22:30:50.044Z,6.78
2022-08-23T22:34:55.583Z,5.05
2022-08-23T22:38:59.483Z,5.30
2022-08-23T22:43:03.327Z,6.57
2022-08-23T22:47:07.508Z,5.30
2022-08-23T22:51:14.813Z,3.83
2022-08-23T22:55:18.436Z,5.32
2022-08-23T22:59:27.497Z,5.65
2022-08-23T23:03:32.272Z,7.20
2022-08-23T23:07:54.709Z,5.97
2022-08-23T23:11:58.326Z,4.85
2022-08-23T23:16:04.697Z,5.13
2022-08-23T23:20:27.069Z,5.22
2022-08-23T23:24:36.150Z,6.28
2022-08-23T23:36:47.535Z,7.78
2022-08-23T23:40:52.150Z,4.20
2022-08-23T23:44:55.888Z,5.72
2022-08-23T23:48:59.885Z,4.82
2022-08-23T23:53:03.096Z,4.35
2022-08-23T23:57:08.698Z,3.85
